createdAt,value
2022-12-03T00:01:04.323Z,4.90
2022-12-03T00:03:31.129Z,4.90
2022-12-03T00:05:57.891Z,4.47
2022-12-03T00:08:24.486Z,4.53
2022-12-03T00:10:51.165Z,4.25
2022-12-03T00:13:17.894Z,4.70
2022-12-03T00:15:44.469Z,3.90
2022-12-03T00:18:12.572Z,4.07
2022-12-03T00:20:39.083Z,4.63
2022-12-03T00:23:05.799Z,4.20
2022-12-03T00:25:32.574Z,4.43
2022-12-03T00:27:59.165Z,4.20
2022-12-03T00:30:25.986Z,4.70
2022-12-03T00:32:52.505Z,4.68
2022-12-03T00:35:20.595Z,4.63
2022-12-03T00:37:47.148Z,4.50
2022-12-03T00:40:14.011Z,4.83
2022-12-03T00:42:40.534Z,4.63
2022-12-03T00:45:07.882Z,4.38
2022-12-03T00:47:34.409Z,4.50
2022-12-03T00:50:01.009Z,5.10
2022-12-03T00:52:28.971Z,4.47
2022-12-03T00:54:55.787Z,5.20
2022-12-03T00:57:22.595Z,4.93
2022-12-03T00:59:49.200Z,4.78
2022-12-03T01:02:15.940Z,4.78
2022-12-03T01:04:42.646Z,5.07
2022-12-03T01:07:09.404Z,4.90
2022-12-03T01:09:37.407Z,5.40
2022-12-03T01:12:04.080Z,5.38
2022-12-03T01:14:30.811Z,5.45
2022-12-03T01:16:57.322Z,5.10
2022-12-03T01:19:24.010Z,5.03
2022-12-03T01:21:51.790Z,5.68
2022-12-03T01:24:19.412Z,5.65
2022-12-03T01:26:47.514Z,5.88
2022-12-03T01:29:14.483Z,5.20
2022-12-03T01:31:41.156Z,5.75
2022-12-03T01:34:07.742Z,5.88
2022-12-03T01:36:34.295Z,5.28
2022-12-03T01:39:01.007Z,6.22
2022-12-03T01:41:28.098Z,5.00
2022-12-03T01:43:57.680Z,5.03
2022-12-03T01:46:27.655Z,5.95
2022-12-03T01:48:56.514Z,5.28
2022-12-03T01:51:23.266Z,5.35
2022-12-03T01:53:50.249Z,4.87
2022-12-03T01:56:18.449Z,5.15
2022-12-03T01:58:46.200Z,4.80
2022-12-03T02:01:16.382Z,4.70
2022-12-03T02:03:43.218Z,5.35
2022-12-03T02:06:15.798Z,5.83
2022-12-03T02:08:42.834Z,5.97
2022-12-03T02:11:17.606Z,5.10
2022-12-03T02:13:44.766Z,5.95
2022-12-03T02:16:11.565Z,5.68
2022-12-03T02:18:39.707Z,5.53
2022-12-03T02:21:13.813Z,5.00
2022-12-03T02:23:51.613Z,5.80
2022-12-03T02:26:19.684Z,5.43
2022-12-03T02:28:46.265Z,5.03
2022-12-03T02:31:13.032Z,5.60
2022-12-03T02:33:40.075Z,5.28
2022-12-03T02:36:07.318Z,5.63
2022-12-03T02:38:35.669Z,5.50
2022-12-03T02:41:06.752Z,6.38
2022-12-03T02:43:35.012Z,5.63
2022-12-03T02:46:03.580Z,5.35
2022-12-03T02:48:34.683Z,6.32
2022-12-03T02:51:04.200Z,6.13
2022-12-03T02:53:37.421Z,6.50
2022-12-03T02:56:05.471Z,6.07
2022-12-03T02:58:34.329Z,5.63
2022-12-03T03:01:02.579Z,6.78
2022-12-03T03:03:30.881Z,6.70
2022-12-03T03:05:59.305Z,7.00
2022-12-03T03:08:27.075Z,6.90
2022-12-03T03:10:55.421Z,6.40
2022-12-03T03:13:22.146Z,7.20
2022-12-03T03:15:50.411Z,6.35
2022-12-03T03:18:17.841Z,6.30
2022-12-03T03:20:45.022Z,6.63
2022-12-03T03:23:15.247Z,6.35
2022-12-03T03:25:44.437Z,6.07
2022-12-03T03:28:11.973Z,6.55
2022-12-03T03:30:40.954Z,6.53
2022-12-03T03:33:09.955Z,6.20
2022-12-03T03:35:37.211Z,6.57
2022-12-03T03:38:04.456Z,6.85
2022-12-03T03:40:31.453Z,6.68
2022-12-03T03:42:59.576Z,7.07
2022-12-03T03:45:29.437Z,6.63
2022-12-03T03:47:58.035Z,7.03
2022-12-03T03:50:28.128Z,6.78
2022-12-03T03:52:55.454Z,6.63
2022-12-03T03:55:22.517Z,6.97
2022-12-03T03:57:49.142Z,7.03
2022-12-03T04:00:16.482Z,6.38
2022-12-03T04:02:43.434Z,6.95
2022-12-03T04:05:15.954Z,7.38
2022-12-03T04:07:43.866Z,7.60
2022-12-03T04:10:11.449Z,6.93
2022-12-03T04:12:37.992Z,7.00
2022-12-03T04:15:05.814Z,7.47
2022-12-03T04:17:32.586Z,7.10
2022-12-03T04:19:59.271Z,8.63
2022-12-03T04:22:25.787Z,7.13
2022-12-03T04:24:54.143Z,7.32
2022-12-03T04:27:21.131Z,7.82
2022-12-03T04:29:47.670Z,7.43
2022-12-03T04:32:14.196Z,7.45
2022-12-03T04:34:40.737Z,7.23
2022-12-03T04:37:07.321Z,7.15
2022-12-03T04:39:34.332Z,7.72
2022-12-03T04:42:03.080Z,7.38
2022-12-03T04:44:29.656Z,7.70
2022-12-03T04:46:56.272Z,7.67
2022-12-03T04:49:22.966Z,7.35
2022-12-03T04:51:49.704Z,8.35
2022-12-03T04:54:16.329Z,8.68
2022-12-03T04:56:43.187Z,7.40
2022-12-03T04:59:15.781Z,7.43
2022-12-03T05:01:43.013Z,7.13
2022-12-03T05:04:09.711Z,7.80
2022-12-03T05:06:36.243Z,7.45
2022-12-03T05:09:03.034Z,8.07
2022-12-03T05:11:29.712Z,7.93
2022-12-03T05:13:56.243Z,6.97
2022-12-03T05:16:24.185Z,8.43
2022-12-03T05:18:50.921Z,8.50
2022-12-03T05:21:17.468Z,8.25
2022-12-03T05:23:44.093Z,7.33
2022-12-03T05:26:11.030Z,8.98
2022-12-03T05:28:37.700Z,9.32
2022-12-03T05:31:04.308Z,8.25
2022-12-03T05:33:32.709Z,7.45
2022-12-03T05:35:59.573Z,7.03
2022-12-03T05:38:26.278Z,8.45
2022-12-03T05:40:52.788Z,7.30
2022-12-03T05:43:19.405Z,8.05
2022-12-03T05:45:46.013Z,8.60
2022-12-03T05:48:15.627Z,7.27
2022-12-03T05:50:45.673Z,7.22
2022-12-03T05:53:12.744Z,7.60
2022-12-03T05:55:39.548Z,7.82
2022-12-03T05:58:06.631Z,7.80
2022-12-03T06:00:40.587Z,7.83
2022-12-03T06:03:09.152Z,7.57
2022-12-03T06:05:35.783Z,7.45
2022-12-03T06:08:04.438Z,8.02
2022-12-03T06:10:31.341Z,8.60
2022-12-03T06:12:57.923Z,7.80
2022-12-03T06:15:24.512Z,8.05
2022-12-03T06:17:51.225Z,8.23
2022-12-03T06:20:19.794Z,8.23
2022-12-03T06:22:46.721Z,7.70
2022-12-03T06:25:15.830Z,7.33
2022-12-03T06:27:42.398Z,7.40
2022-12-03T06:30:11.296Z,7.63
2022-12-03T06:32:37.805Z,7.60
2022-12-03T06:35:05.058Z,7.93
2022-12-03T06:37:31.607Z,7.67
2022-12-03T06:39:58.320Z,8.55
2022-12-03T06:42:26.234Z,8.13
2022-12-03T06:44:53.324Z,7.88
2022-12-03T06:47:20.327Z,8.00
2022-12-03T06:49:47.086Z,7.53
2022-12-03T06:52:13.620Z,8.25
2022-12-03T06:54:40.158Z,8.23
2022-12-03T06:57:06.649Z,8.68
2022-12-03T06:59:34.620Z,7.70
2022-12-03T07:02:01.311Z,8.83
2022-12-03T07:04:27.914Z,8.68
2022-12-03T07:06:54.524Z,8.38
2022-12-03T07:09:21.041Z,8.23
2022-12-03T07:11:47.641Z,9.23
2022-12-03T07:14:15.127Z,7.93
2022-12-03T07:16:43.536Z,8.20
2022-12-03T07:19:10.811Z,8.38
2022-12-03T07:21:37.662Z,9.13
2022-12-03T07:24:04.406Z,8.60
2022-12-03T07:26:31.182Z,8.40
2022-12-03T07:28:58.428Z,8.77
2022-12-03T07:31:25.217Z,9.70
2022-12-03T07:33:53.227Z,9.15
2022-12-03T07:36:19.915Z,8.85
2022-12-03T07:38:46.507Z,9.07
2022-12-03T07:41:13.192Z,8.75
2022-12-03T07:43:39.727Z,9.43
2022-12-03T07:46:06.445Z,10.20
2022-12-03T07:48:32.990Z,10.77
2022-12-03T07:51:00.941Z,9.33
2022-12-03T07:53:27.628Z,9.68
2022-12-03T07:55:54.172Z,9.48
2022-12-03T07:58:20.859Z,9.45
2022-12-03T08:00:47.507Z,9.82
2022-12-03T08:03:14.167Z,9.57
2022-12-03T08:05:40.779Z,8.90
2022-12-03T08:08:08.933Z,10.73
2022-12-03T08:10:35.539Z,9.77
2022-12-03T08:13:06.658Z,9.75
2022-12-03T08:15:39.078Z,9.23
2022-12-03T08:18:13.561Z,9.60
2022-12-03T08:20:41.562Z,10.15
2022-12-03T08:23:13.838Z,10.02
2022-12-03T08:25:40.631Z,9.23
2022-12-03T08:28:12.525Z,9.30
2022-12-03T08:30:39.473Z,9.77
2022-12-03T08:33:16.611Z,10.43
2022-12-03T08:35:48.533Z,9.32
2022-12-03T08:38:17.953Z,10.13
2022-12-03T08:40:46.795Z,10.07
2022-12-03T08:43:19.382Z,9.13
2022-12-03T08:45:46.409Z,9.32
2022-12-03T08:48:24.369Z,10.02
2022-12-03T08:50:51.279Z,9.73
2022-12-03T08:53:28.268Z,9.70
2022-12-03T08:55:57.354Z,9.07
2022-12-03T08:58:27.857Z,9.30
2022-12-03T09:00:58.490Z,9.82
2022-12-03T09:03:25.509Z,10.38
2022-12-03T09:05:52.061Z,9.43
2022-12-03T09:08:18.717Z,10.48
2022-12-03T09:10:46.758Z,9.82
2022-12-03T09:13:13.312Z,9.57
2022-12-03T09:15:39.822Z,10.52
2022-12-03T09:18:06.481Z,11.80
2022-12-03T09:20:33.080Z,11.88
2022-12-03T09:22:59.747Z,11.63
2022-12-03T09:25:26.334Z,9.82
2022-12-03T09:27:54.364Z,10.13
2022-12-03T09:30:20.939Z,11.13
2022-12-03T09:32:47.491Z,10.00
2022-12-03T09:35:14.124Z,9.75
2022-12-03T09:37:40.758Z,9.70
2022-12-03T09:40:09.014Z,9.73
2022-12-03T09:42:36.249Z,10.07
2022-12-03T09:45:07.667Z,9.88
2022-12-03T09:47:34.479Z,10.27
2022-12-03T09:50:01.083Z,9.48
2022-12-03T09:52:31.377Z,9.63
2022-12-03T09:54:59.403Z,9.57
2022-12-03T09:57:26.361Z,9.55
2022-12-03T09:59:58.415Z,9.77
2022-12-03T10:02:30.533Z,9.32
2022-12-03T10:04:58.128Z,9.45
2022-12-03T10:07:25.622Z,9.33
2022-12-03T10:09:53.095Z,8.60
2022-12-03T10:12:24.084Z,9.15
2022-12-03T10:14:51.557Z,9.35
2022-12-03T10:17:18.458Z,9.82
2022-12-03T10:19:46.653Z,8.17
2022-12-03T10:22:13.248Z,9.52
2022-12-03T10:24:40.042Z,9.85
2022-12-03T10:27:21.393Z,9.20
2022-12-03T10:29:55.261Z,9.25
2022-12-03T10:32:25.878Z,9.60
2022-12-03T10:35:07.604Z,9.10
2022-12-03T10:37:34.217Z,9.52
2022-12-03T10:40:02.187Z,9.15
2022-12-03T10:42:30.950Z,9.75
2022-12-03T10:45:15.816Z,8.73
2022-12-03T10:47:43.125Z,9.52
2022-12-03T10:50:17.978Z,10.73
2022-12-03T10:52:45.887Z,8.52
2022-12-03T10:55:13.774Z,10.20
2022-12-03T10:57:45.712Z,10.70
2022-12-03T11:00:16.573Z,10.02
2022-12-03T11:02:43.197Z,9.50
2022-12-03T11:05:15.388Z,10.05
2022-12-03T11:07:43.998Z,10.07
2022-12-03T11:10:14.445Z,9.80
2022-12-03T11:12:41.306Z,11.52
2022-12-03T11:15:15.176Z,11.20
2022-12-03T11:17:44.697Z,9.45
2022-12-03T11:20:55.931Z,9.23
2022-12-03T11:23:55.745Z,9.43
2022-12-03T11:26:55.782Z,9.57
2022-12-03T11:29:49.198Z,10.32
2022-12-03T11:33:00.741Z,8.65
2022-12-03T11:35:34.789Z,9.27
2022-12-03T11:38:55.963Z,10.00
2022-12-03T11:41:28.711Z,9.45
2022-12-03T11:44:20.825Z,9.45
2022-12-03T11:46:48.935Z,9.75
2022-12-03T11:49:25.472Z,9.27
2022-12-03T11:51:52.148Z,8.53
2022-12-03T11:54:21.853Z,8.68
2022-12-03T11:56:49.755Z,9.43
2022-12-03T11:59:17.295Z,9.13
2022-12-03T12:01:44.473Z,9.27
2022-12-03T12:07:35.415Z,9.57
2022-12-03T12:10:02.815Z,9.88
2022-12-03T12:12:31.418Z,9.00
2022-12-03T12:14:59.419Z,9.98
2022-12-03T12:17:34.131Z,10.18
2022-12-03T12:20:22.854Z,10.68
2022-12-03T12:22:51.255Z,9.25
2022-12-03T12:25:40.714Z,9.27
2022-12-03T12:28:07.854Z,10.02
2022-12-03T12:30:34.660Z,9.93
2022-12-03T12:33:20.952Z,9.68
2022-12-03T12:35:47.561Z,9.30
2022-12-03T12:38:19.892Z,8.87
2022-12-03T12:40:48.559Z,9.50
2022-12-03T12:43:24.098Z,9.93
2022-12-03T12:45:53.122Z,9.65
2022-12-03T12:48:23.951Z,9.43
2022-12-03T12:50:57.302Z,9.17
2022-12-03T12:53:27.338Z,9.93
2022-12-03T12:55:56.427Z,10.70
2022-12-03T12:58:24.147Z,9.02
2022-12-03T13:00:53.085Z,12.25
2022-12-03T13:03:22.056Z,10.13
2022-12-03T13:05:50.777Z,9.50
2022-12-03T13:08:22.818Z,9.25
2022-12-03T13:10:51.577Z,8.45
2022-12-03T13:13:28.805Z,9.48
2022-12-03T13:16:17.182Z,9.17
2022-12-03T13:18:46.119Z,10.27
2022-12-03T13:21:22.621Z,9.88
2022-12-03T13:23:51.342Z,8.38
2022-12-03T13:26:36.057Z,9.20
2022-12-03T13:29:10.848Z,8.43
2022-12-03T13:31:43.237Z,9.50
2022-12-03T13:34:14.250Z,9.73
2022-12-03T13:36:43.000Z,10.20
2022-12-03T13:39:15.474Z,10.75
2022-12-03T13:41:43.600Z,10.40
2022-12-03T13:44:15.618Z,10.35
2022-12-03T13:46:42.517Z,10.77
2022-12-03T13:49:21.556Z,10.93
2022-12-03T13:51:49.156Z,11.30
2022-12-03T13:54:20.197Z,10.83
2022-12-03T13:56:48.467Z,11.23
2022-12-03T13:59:15.232Z,10.80
2022-12-03T14:01:41.893Z,9.98
2022-12-03T14:04:08.654Z,9.75
2022-12-03T14:06:35.222Z,9.67
2022-12-03T14:09:01.803Z,9.23
2022-12-03T14:11:28.505Z,10.52
2022-12-03T14:13:56.439Z,10.00
2022-12-03T14:16:23.576Z,10.23
2022-12-03T14:18:50.187Z,9.27
2022-12-03T14:21:16.753Z,9.77
2022-12-03T14:23:43.358Z,9.00
2022-12-03T14:26:09.953Z,9.48
2022-12-03T14:28:36.512Z,9.93
2022-12-03T14:31:04.621Z,8.73
2022-12-03T14:33:31.145Z,8.93
2022-12-03T14:35:57.730Z,10.13
2022-12-03T14:38:24.631Z,10.00
2022-12-03T14:40:51.291Z,9.27
2022-12-03T14:43:18.014Z,9.77
2022-12-03T14:45:44.612Z,9.88
2022-12-03T14:48:12.581Z,9.77
2022-12-03T14:50:39.098Z,9.73
2022-12-03T14:53:05.585Z,9.43
2022-12-03T14:55:32.289Z,9.73
2022-12-03T14:57:58.832Z,10.10
2022-12-03T15:00:25.651Z,9.57
2022-12-03T15:02:52.236Z,9.90
2022-12-03T15:05:26.401Z,9.90
2022-12-03T15:07:55.005Z,9.13
2022-12-03T15:10:21.806Z,9.75
2022-12-03T15:12:48.379Z,10.43
2022-12-03T15:15:15.259Z,10.18
2022-12-03T15:17:41.811Z,10.57
2022-12-03T15:20:09.280Z,9.93
2022-12-03T15:22:37.195Z,9.25
2022-12-03T15:25:04.056Z,9.18
2022-12-03T15:27:30.567Z,9.90
2022-12-03T15:29:57.167Z,9.82
2022-12-03T15:32:23.858Z,9.13
2022-12-03T15:34:50.357Z,9.18
2022-12-03T15:37:17.353Z,8.60
2022-12-03T15:39:48.683Z,9.27
2022-12-03T15:42:15.581Z,8.80
2022-12-03T15:44:42.107Z,9.37
2022-12-03T15:47:08.618Z,8.80
2022-12-03T15:49:35.212Z,8.77
2022-12-03T15:52:01.941Z,9.43
2022-12-03T15:54:28.525Z,9.27
2022-12-03T15:56:57.734Z,8.07
2022-12-03T15:59:24.701Z,8.52
2022-12-03T16:01:51.292Z,8.98
2022-12-03T16:04:18.004Z,9.10
2022-12-03T16:06:44.565Z,9.80
2022-12-03T16:09:11.127Z,8.83
2022-12-03T16:11:37.710Z,9.35
2022-12-03T16:14:05.617Z,9.25
2022-12-03T16:16:32.479Z,9.80
2022-12-03T16:18:59.056Z,9.05
2022-12-03T16:21:27.344Z,8.83
2022-12-03T16:23:54.265Z,9.27
2022-12-03T16:26:21.095Z,10.07
2022-12-03T16:28:47.656Z,9.30
2022-12-03T16:31:15.786Z,9.82
2022-12-03T16:33:42.457Z,9.60
2022-12-03T16:36:09.406Z,9.80
2022-12-03T16:38:35.926Z,10.40
2022-12-03T16:41:02.595Z,10.00
2022-12-03T16:43:29.273Z,9.43
2022-12-03T16:45:55.896Z,8.97
2022-12-03T16:48:24.075Z,9.30
2022-12-03T16:50:50.628Z,9.55
2022-12-03T16:53:17.379Z,10.00
2022-12-03T16:55:43.938Z,10.07
2022-12-03T16:58:10.470Z,9.13
2022-12-03T17:00:37.035Z,10.32
2022-12-03T17:03:03.765Z,11.15
2022-12-03T17:05:32.013Z,9.57
2022-12-03T17:07:58.649Z,10.30
2022-12-03T17:10:25.307Z,11.87
2022-12-03T17:15:38.858Z,9.68
2022-12-03T17:18:06.469Z,10.05
2022-12-03T17:20:34.935Z,11.38
2022-12-03T17:23:01.963Z,10.20
2022-12-03T17:25:28.809Z,11.20
2022-12-03T17:27:55.627Z,11.93
2022-12-03T17:30:22.263Z,11.95
2022-12-03T17:32:48.886Z,11.68
2022-12-03T17:35:15.904Z,11.50
2022-12-03T17:37:43.831Z,9.05
2022-12-03T17:40:12.886Z,9.20
2022-12-03T17:42:39.635Z,8.75
2022-12-03T17:45:07.587Z,9.70
2022-12-03T17:47:34.172Z,9.03
2022-12-03T17:50:00.733Z,9.02
2022-12-03T17:52:27.326Z,10.55
2022-12-03T17:55:10.434Z,8.90
2022-12-03T17:57:39.623Z,10.48
2022-12-03T18:00:07.441Z,9.93
2022-12-03T18:02:34.018Z,9.85
2022-12-03T18:05:00.535Z,10.05
2022-12-03T18:07:27.298Z,9.35
2022-12-03T18:09:55.523Z,10.88
2022-12-03T18:12:22.400Z,9.77
2022-12-03T18:14:49.108Z,9.70
2022-12-03T18:17:15.666Z,11.77
2022-12-03T18:19:42.276Z,10.00
2022-12-03T18:22:08.961Z,11.00
2022-12-03T18:24:35.647Z,9.10
2022-12-03T18:27:03.625Z,8.30
2022-12-03T18:29:30.221Z,10.82
2022-12-03T18:31:56.852Z,9.52
2022-12-03T18:34:23.398Z,9.55
2022-12-03T18:36:49.993Z,8.80
2022-12-03T18:39:23.558Z,9.32
2022-12-03T18:41:50.297Z,9.57
2022-12-03T18:44:18.195Z,9.63
2022-12-03T18:46:53.560Z,10.30
2022-12-03T18:49:21.245Z,10.43
2022-12-03T18:51:48.572Z,9.38
2022-12-03T18:54:15.711Z,9.18
2022-12-03T18:56:42.254Z,10.18
2022-12-03T18:59:09.140Z,8.88
2022-12-03T19:01:37.116Z,8.97
2022-12-03T19:04:03.998Z,8.95
2022-12-03T19:06:30.641Z,9.02
2022-12-03T19:08:57.589Z,8.55
2022-12-03T19:11:24.434Z,9.70
2022-12-03T19:13:51.154Z,8.90
2022-12-03T19:16:17.891Z,8.48
2022-12-03T19:18:45.846Z,8.00
2022-12-03T19:21:14.379Z,7.90
2022-12-03T19:23:42.803Z,8.65
2022-12-03T19:26:14.553Z,8.10
2022-12-03T19:28:41.594Z,10.57
2022-12-03T19:31:10.793Z,10.88
2022-12-03T19:33:38.150Z,8.02
2022-12-03T19:36:08.643Z,8.85
2022-12-03T19:38:35.239Z,9.23
2022-12-03T19:41:04.336Z,8.85
2022-12-03T19:43:31.577Z,9.30
2022-12-03T19:46:02.446Z,8.85
2022-12-03T19:48:29.477Z,9.70
2022-12-03T19:51:13.662Z,9.30
2022-12-03T19:53:43.985Z,8.60
2022-12-03T19:56:12.745Z,8.90
2022-12-03T19:58:40.636Z,8.90
2022-12-03T20:01:08.328Z,9.68
2022-12-03T20:03:34.967Z,9.30
2022-12-03T20:06:01.676Z,8.93
2022-12-03T20:08:28.414Z,8.85
2022-12-03T20:10:56.390Z,9.02
2022-12-03T20:13:23.116Z,9.35
2022-12-03T20:15:49.588Z,9.13
2022-12-03T20:18:16.106Z,8.93
2022-12-03T20:20:42.651Z,9.32
2022-12-03T20:23:09.190Z,8.85
2022-12-03T20:25:36.536Z,9.90
2022-12-03T20:28:04.777Z,8.97
2022-12-03T20:30:31.289Z,9.70
2022-12-03T20:32:57.809Z,9.48
2022-12-03T20:35:24.394Z,9.45
2022-12-03T20:37:50.971Z,9.38
2022-12-03T20:40:17.670Z,9.40
2022-12-03T20:42:46.915Z,9.35
2022-12-03T20:45:15.189Z,10.18
2022-12-03T20:47:41.756Z,9.43
2022-12-03T20:50:08.734Z,9.02
2022-12-03T20:52:35.329Z,10.60
2022-12-03T20:55:02.035Z,9.90
2022-12-03T20:57:28.611Z,10.63
2022-12-03T20:59:55.773Z,9.18
2022-12-03T21:02:23.959Z,10.52
2022-12-03T21:04:50.542Z,9.13
2022-12-03T21:07:17.290Z,8.93
2022-12-03T21:09:43.826Z,10.27
2022-12-03T21:12:10.488Z,8.95
2022-12-03T21:14:37.017Z,9.48
2022-12-03T21:17:08.856Z,9.30
2022-12-03T21:19:37.519Z,9.98
2022-12-03T21:22:04.084Z,9.45
2022-12-03T21:24:30.697Z,10.18
2022-12-03T21:26:57.232Z,9.73
2022-12-03T21:29:24.049Z,9.23
2022-12-03T21:31:50.637Z,10.02
2022-12-03T21:34:17.233Z,10.60
2022-12-03T21:36:45.243Z,9.18
2022-12-03T21:39:11.856Z,11.18
2022-12-03T21:41:38.401Z,9.93
2022-12-03T21:44:05.067Z,9.93
2022-12-03T21:47:11.823Z,10.02
2022-12-03T21:49:18.243Z,9.38
2022-12-03T21:51:46.665Z,9.07
2022-12-03T21:54:13.270Z,9.67
2022-12-03T21:56:39.852Z,9.48
2022-12-03T21:59:06.605Z,9.10
2022-12-03T22:01:33.235Z,9.20
2022-12-03T22:03:59.892Z,9.85
2022-12-03T22:06:26.476Z,10.30
2022-12-03T22:08:54.587Z,8.70
2022-12-03T22:11:23.210Z,8.38
2022-12-03T22:13:50.697Z,8.90
2022-12-03T22:16:19.381Z,9.48
2022-12-03T22:18:46.628Z,9.23
2022-12-03T22:21:15.253Z,9.43
2022-12-03T22:23:41.851Z,10.13
2022-12-03T22:26:13.552Z,9.55
2022-12-03T22:28:42.907Z,8.75
2022-12-03T22:31:10.203Z,9.90
2022-12-03T22:33:37.482Z,9.25
2022-12-03T22:36:05.960Z,9.32
2022-12-03T22:38:32.727Z,9.63
2022-12-03T22:40:59.704Z,9.10
2022-12-03T22:43:27.553Z,9.53
2022-12-03T22:45:55.379Z,8.90
2022-12-03T22:48:22.714Z,9.15
2022-12-03T22:50:50.732Z,7.97
2022-12-03T22:53:17.949Z,8.82
2022-12-03T22:55:44.545Z,8.23
2022-12-03T22:58:11.617Z,8.48
2022-12-03T23:00:41.156Z,9.10
2022-12-03T23:03:08.068Z,8.38
2022-12-03T23:05:36.596Z,8.82
2022-12-03T23:08:03.443Z,8.70
2022-12-03T23:10:34.163Z,8.93
2022-12-03T23:13:01.111Z,9.13
2022-12-03T23:15:28.167Z,8.45
2022-12-03T23:17:56.636Z,9.32
2022-12-03T23:20:23.442Z,8.20
2022-12-03T23:22:50.735Z,7.95
2022-12-03T23:25:18.088Z,8.15
2022-12-03T23:27:45.063Z,7.65
2022-12-03T23:30:14.023Z,8.07
2022-12-03T23:32:40.913Z,7.43
2022-12-03T23:35:10.031Z,7.40
2022-12-03T23:37:36.624Z,7.72
2022-12-03T23:40:04.011Z,7.22
2022-12-03T23:42:30.585Z,6.95
2022-12-03T23:44:57.115Z,7.47
2022-12-03T23:47:23.684Z,7.22
2022-12-03T23:49:50.205Z,7.55
2022-12-03T23:52:18.067Z,7.10
2022-12-03T23:54:44.570Z,6.35
2022-12-03T23:57:11.098Z,6.37
2022-12-03T23:59:37.890Z,6.53
